Terminal Aerodrome Forecast
Issued by NWS Upton, NY

Home | Current Version | Previous Version | Text Only | Print | Product List | Glossary On
Versions: 1 2 3 4 5 6 7 8 9 10 11 12 13 14 15 16 17 18 19 20 21 22 23 24 25 26 27 28 29 30 31 32 33 34 35 36 37 38
352
FTUS41 KOKX 181540 AAB
TAFJFK
TAF AMD
KJFK 181540Z 1816/1918 26009KT P6SM SKC
     FM181800 23009KT P6SM SKC
     FM182000 19010KT P6SM SKC
     FM190100 23007KT P6SM SKC
     FM190800 VRB05KT P6SM SKC
     FM191400 22009KT P6SM SKC=

USA.gov is the U.S. government's official web portal to all federal, state and local government web resources and services.